Time;durP1;ratioP1;P1;durP2;ratioP2;P2;SDS_P1;SDS_P2;PMS_P1;PMS_P2;Temp;Humidity;BMP_temperature;BMP_pressure;BME280_temperature;BME280_humidity;BME280_pressure;Samples;Min_cycle;Max_cycle;Signal;HPM_P1;HPM_P2
2021/10/29 00:02:23;;;;;;;;;19.75;17.00;;;;;13.93;71.63;100485.84;5048242;28;45450;-60
2021/10/29 00:04:51;;;;;;;;;20.25;15.50;;;;;13.95;71.28;100495.31;5046701;28;45741;-60
2021/10/29 00:07:16;;;;;;;;;17.25;16.00;;;;;13.94;71.67;100496.22;5045533;28;45463;-58
2021/10/29 00:09:42;;;;;;;;;14.75;13.00;;;;;13.91;72.00;100495.53;5047492;28;45490;-59
2021/10/29 00:12:07;;;;;;;;;17.75;14.50;;;;;13.89;72.05;100484.28;5048270;28;45414;-59
2021/10/29 00:14:34;;;;;;;;;16.00;12.25;;;;;13.91;72.22;100491.13;5046705;28;45514;-59
2021/10/29 00:17:00;;;;;;;;;14.00;13.25;;;;;13.91;72.01;100488.53;5046872;28;45415;-59
2021/10/29 00:19:26;;;;;;;;;15.75;14.50;;;;;13.91;71.45;100491.13;5050649;28;47363;-59
2021/10/29 00:21:52;;;;;;;;;19.00;15.00;;;;;13.90;72.06;100486.00;5050590;28;45448;-60
2021/10/29 00:24:18;;;;;;;;;20.25;16.25;;;;;13.86;72.27;100474.84;5048630;28;45466;-59
2021/10/29 00:26:44;;;;;;;;;14.75;14.75;;;;;13.82;72.24;100475.91;5047569;28;45556;-60
2021/10/29 00:29:10;;;;;;;;;19.00;15.75;;;;;13.85;72.35;100477.53;5048368;28;46270;-60
2021/10/29 00:31:35;;;;;;;;;16.00;15.50;;;;;13.85;72.02;100477.53;5048191;28;45445;-60
2021/10/29 00:34:00;;;;;;;;;16.25;13.50;;;;;13.86;72.43;100479.22;5049313;28;45206;-60
2021/10/29 00:36:26;;;;;;;;;16.25;14.75;;;;;13.83;72.44;100469.75;5047072;28;45264;-60
2021/10/29 00:38:51;;;;;;;;;17.50;16.00;;;;;13.77;72.44;100464.78;5046873;28;46000;-60
2021/10/29 00:41:16;;;;;;;;;17.00;13.75;;;;;13.80;72.37;100466.41;5047830;28;45241;-60
2021/10/29 00:43:42;;;;;;;;;16.00;16.00;;;;;13.75;72.60;100450.94;5049100;28;45433;-60
2021/10/29 00:46:07;;;;;;;;;19.00;17.50;;;;;13.79;72.46;100462.09;5046186;28;45611;-60
2021/10/29 00:48:34;;;;;;;;;17.50;15.50;;;;;13.77;72.79;100453.50;5054548;28;45311;-59
2021/10/29 00:51:00;;;;;;;;;13.75;11.25;;;;;13.77;72.58;100469.16;5047983;28;45680;-60
2021/10/29 00:53:26;;;;;;;;;18.00;16.00;;;;;13.72;72.73;100458.94;5050560;28;45406;-59
2021/10/29 00:55:51;;;;;;;;;17.50;16.00;;;;;13.72;73.07;100461.53;5049402;28;45431;-60
2021/10/29 00:58:17;;;;;;;;;16.75;14.75;;;;;13.69;72.89;100452.09;5053190;28;45991;-63
2021/10/29 01:00:42;;;;;;;;;23.00;18.00;;;;;13.66;73.25;100447.00;5050256;28;45448;-59
2021/10/29 01:03:08;;;;;;;;;16.75;14.00;;;;;13.63;73.19;100457.59;5053419;28;45379;-60
2021/10/29 01:05:33;;;;;;;;;15.50;14.50;;;;;13.63;73.36;100454.13;5050020;28;45403;-59
2021/10/29 01:07:59;;;;;;;;;18.00;15.00;;;;;13.59;73.19;100440.34;5049899;28;45537;-59
2021/10/29 01:10:30;;;;;;;;;20.75;16.75;;;;;13.55;73.50;100437.94;5050831;28;45525;-59
2021/10/29 01:12:56;;;;;;;;;18.50;14.25;;;;;13.54;73.65;100446.69;5052274;28;45522;-59
2021/10/29 01:15:22;;;;;;;;;18.00;15.00;;;;;13.53;73.60;100443.22;5050110;28;45348;-59
2021/10/29 01:17:47;;;;;;;;;15.75;14.00;;;;;13.51;74.14;100439.00;5050067;28;45423;-59
2021/10/29 01:20:20;;;;;;;;;17.75;13.75;;;;;13.46;73.83;100434.00;5050263;28;45448;-59
2021/10/29 01:22:46;;;;;;;;;17.50;17.25;;;;;13.48;73.74;100432.16;5051947;28;45417;-59
2021/10/29 01:25:12;;;;;;;;;16.50;15.50;;;;;13.47;74.08;100433.06;5049079;28;45686;-59
2021/10/29 01:27:38;;;;;;;;;18.75;13.00;;;;;13.44;74.42;100425.38;5047512;28;46313;-59
2021/10/29 01:30:05;;;;;;;;;15.25;15.25;;;;;13.41;74.14;100430.72;5048874;28;45780;-59
2021/10/29 01:32:31;;;;;;;;;20.75;16.00;;;;;13.38;74.45;100429.09;5048905;28;45434;-59
2021/10/29 01:34:56;;;;;;;;;21.50;17.00;;;;;13.33;74.28;100409.34;5047019;28;45597;-59
2021/10/29 01:37:22;;;;;;;;;14.25;13.25;;;;;13.34;74.93;100427.53;5047658;28;45541;-59
2021/10/29 01:39:47;;;;;;;;;19.25;16.00;;;;;13.35;74.87;100421.41;5048694;28;45336;-59
2021/10/29 01:42:13;;;;;;;;;18.25;15.00;;;;;13.35;74.75;100423.16;5049274;28;45790;-59
2021/10/29 01:44:40;;;;;;;;;13.25;13.00;;;;;13.33;75.22;100411.94;5046369;28;45582;-59
2021/10/29 01:47:06;;;;;;;;;16.50;13.00;;;;;13.32;74.94;100405.88;5046210;28;46136;-59
2021/10/29 01:49:32;;;;;;;;;16.00;13.00;;;;;13.30;75.11;100402.50;5049857;28;45702;-59
2021/10/29 01:51:58;;;;;;;;;15.00;14.25;;;;;13.30;75.02;100402.50;5047998;28;45399;-60
2021/10/29 01:54:23;;;;;;;;;16.50;11.50;;;;;13.26;74.96;100398.31;5048935;28;45601;-60
2021/10/29 01:56:49;;;;;;;;;16.50;16.00;;;;;13.25;75.11;100399.25;5049568;28;45617;-60
2021/10/29 01:59:14;;;;;;;;;14.75;13.00;;;;;13.25;75.35;100398.41;5055434;28;45324;-60
2021/10/29 02:01:39;;;;;;;;;15.00;13.50;;;;;13.23;75.27;100393.25;5051756;28;45303;-60
2021/10/29 02:04:05;;;;;;;;;16.00;13.00;;;;;13.22;75.30;100393.31;5050599;28;45162;-59
2021/10/29 02:06:30;;;;;;;;;17.50;15.00;;;;;13.20;75.56;100388.13;5047566;28;45348;-60
2021/10/29 02:08:55;;;;;;;;;15.00;15.00;;;;;13.19;75.75;100383.00;5053056;28;45340;-59
2021/10/29 02:11:21;;;;;;;;;15.25;13.25;;;;;13.17;75.37;100384.78;5049947;28;45410;-59
2021/10/29 02:13:46;;;;;;;;;15.50;12.75;;;;;13.15;75.89;100378.78;5049988;28;45627;-59
2021/10/29 02:16:12;;;;;;;;;16.00;14.25;;;;;13.14;75.65;100374.50;5050883;28;46075;-59
2021/10/29 02:18:37;;;;;;;;;19.25;15.75;;;;;13.13;76.05;100378.84;5049247;28;45374;-59
2021/10/29 02:21:03;;;;;;;;;15.00;12.75;;;;;13.12;76.07;100379.78;5049279;28;45385;-59
2021/10/29 02:23:28;;;;;;;;;13.00;13.00;;;;;13.11;75.67;100367.66;5051364;28;45475;-59
2021/10/29 02:25:55;;;;;;;;;14.00;14.00;;;;;13.09;76.31;100366.88;5048132;28;45945;-59
2021/10/29 02:28:22;;;;;;;;;17.25;12.25;;;;;13.08;75.98;100359.97;5054434;28;45483;-60
2021/10/29 02:30:48;;;;;;;;;14.00;14.00;;;;;13.05;76.26;100366.16;5060461;28;45677;-59
2021/10/29 02:33:16;;;;;;;;;18.75;12.00;;;;;13.04;76.03;100361.00;5060845;28;45305;-59
2021/10/29 02:35:42;;;;;;;;;16.00;11.75;;;;;13.02;75.61;100350.66;5057657;28;47276;-59
2021/10/29 02:38:07;;;;;;;;;15.00;14.00;;;;;13.00;76.30;100357.66;5052982;28;45283;-59
2021/10/29 02:40:32;;;;;;;;;12.25;10.25;;;;;12.98;76.18;100354.28;5060486;28;45662;-57
2021/10/29 02:42:58;;;;;;;;;17.75;12.50;;;;;12.96;75.91;100343.06;5060695;28;45284;-59
2021/10/29 02:45:24;;;;;;;;;13.50;11.75;;;;;12.95;75.85;100349.19;5061037;28;45257;-60
2021/10/29 02:47:49;;;;;;;;;15.50;12.75;;;;;12.94;76.06;100342.28;5060650;28;45242;-60
2021/10/29 02:50:17;;;;;;;;;12.75;11.25;;;;;12.94;75.98;100341.44;5053146;28;45519;-59
2021/10/29 02:52:42;;;;;;;;;12.25;12.25;;;;;12.91;76.21;100342.44;5060223;28;45438;-58
2021/10/29 02:55:09;;;;;;;;;17.25;15.75;;;;;12.94;75.59;100336.22;5059866;28;47068;-59
2021/10/29 02:57:35;;;;;;;;;8.75;7.25;;;;;12.93;75.80;100334.53;5060488;28;45470;-60
2021/10/29 03:00:00;;;;;;;;;16.25;11.50;;;;;12.92;75.61;100340.66;5060038;28;45503;-60
2021/10/29 03:02:26;;;;;;;;;14.50;13.25;;;;;12.90;75.59;100330.31;5059091;28;45275;-59
2021/10/29 03:04:51;;;;;;;;;14.75;12.75;;;;;12.88;75.71;100326.06;5058896;28;45280;-59
2021/10/29 03:07:16;;;;;;;;;14.75;12.75;;;;;12.89;75.70;100322.56;5060368;28;45382;-59
2021/10/29 03:09:42;;;;;;;;;14.25;11.75;;;;;12.87;75.45;100320.00;5059904;28;45492;-59
2021/10/29 03:12:07;;;;;;;;;13.50;10.50;;;;;12.85;75.64;100308.81;5058997;28;45459;-59
2021/10/29 03:14:33;;;;;;;;;12.00;11.00;;;;;12.84;75.53;100314.94;5059810;28;45573;-57
2021/10/29 03:16:58;;;;;;;;;12.75;9.50;;;;;12.82;75.45;100303.72;5059884;28;45322;-59
2021/10/29 03:19:24;;;;;;;;;11.75;10.75;;;;;12.83;75.58;100305.41;5059884;28;45208;-60
2021/10/29 03:21:49;;;;;;;;;19.50;13.00;;;;;12.77;75.44;100293.47;5059953;28;45422;-60
2021/10/29 03:24:15;;;;;;;;;11.75;10.50;;;;;12.77;75.68;100303.06;5055848;28;46038;-60
2021/10/29 03:26:40;;;;;;;;;15.00;12.50;;;;;12.77;75.50;100295.22;5059815;28;45322;-60
2021/10/29 03:29:05;;;;;;;;;15.25;11.00;;;;;12.77;75.31;100288.25;5059713;28;45615;-60
2021/10/29 03:31:31;;;;;;;;;15.50;12.25;;;;;12.76;75.42;100290.94;5059889;28;45401;-58
2021/10/29 03:33:56;;;;;;;;;19.50;12.00;;;;;12.74;75.37;100290.16;5057351;28;46254;-59
2021/10/29 03:36:21;;;;;;;;;12.00;11.00;;;;;12.73;75.40;100281.50;5050910;28;45361;-59
2021/10/29 03:38:53;;;;;;;;;11.00;11.00;;;;;12.71;75.33;100272.03;5056887;28;45327;-59
2021/10/29 03:41:22;;;;;;;;;13.50;12.50;;;;;12.72;75.74;100273.75;5059594;28;45426;-59
2021/10/29 03:44:01;;;;;;;;;13.75;11.25;;;;;12.70;75.38;100270.34;5058202;28;45381;-59
2021/10/29 03:46:29;;;;;;;;;13.25;13.25;;;;;12.67;75.63;100263.50;5059102;28;45270;-59
2021/10/29 03:51:42;;;;;;;;;13.25;12.50;;;;;12.69;75.40;100268.66;5058778;28;45457;-59
2021/10/29 03:56:41;;;;;;;;;15.75;11.25;;;;;12.71;75.93;100267.69;5058445;28;45409;-59
2021/10/29 03:59:08;;;;;;;;;9.00;7.50;;;;;12.70;75.53;100260.78;5054354;28;45394;-59
2021/10/29 04:01:33;;;;;;;;;13.00;11.00;;;;;12.72;76.34;100266.75;5051542;28;45519;-59
2021/10/29 04:03:59;;;;;;;;;15.50;11.25;;;;;12.73;75.88;100255.41;5060668;28;45882;-59
2021/10/29 04:06:24;;;;;;;;;13.00;11.75;;;;;12.77;76.11;100258.72;5051069;28;45410;-59
2021/10/29 04:08:50;;;;;;;;;8.00;6.50;;;;;12.73;75.80;100258.03;5059611;28;45311;-59
2021/10/29 04:11:20;;;;;;;;;13.25;12.25;;;;;12.75;75.99;100253.59;5051844;28;45469;-59
2021/10/29 04:13:46;;;;;;;;;9.50;9.00;;;;;12.75;75.78;100248.38;5049622;28;46797;-59
2021/10/29 04:16:11;;;;;;;;;10.25;8.50;;;;;12.67;75.73;100223.56;5051421;28;45465;-59
2021/10/29 04:18:38;;;;;;;;;14.50;10.25;;;;;12.74;75.70;100222.38;5048585;28;45416;-60
2021/10/29 04:21:03;;;;;;;;;9.75;7.75;;;;;12.72;75.98;100237.22;5046833;28;45600;-60
2021/10/29 04:23:29;;;;;;;;;12.00;9.25;;;;;12.73;76.08;100223.28;5051228;28;46783;-60
2021/10/29 04:25:55;;;;;;;;;12.50;9.00;;;;;12.73;75.70;100224.13;5055908;28;45396;-60
2021/10/29 04:28:21;;;;;;;;;11.25;11.00;;;;;12.73;76.39;100213.69;5059005;28;45212;-60
2021/10/29 04:30:46;;;;;;;;;10.00;10.00;;;;;12.74;76.03;100223.22;5058315;28;45344;-60
2021/10/29 04:33:13;;;;;;;;;11.50;9.75;;;;;12.74;76.46;100212.78;5060739;28;46142;-60
2021/10/29 04:35:43;;;;;;;;;13.00;11.00;;;;;12.76;76.13;100218.78;5059017;28;45692;-59
2021/10/29 04:38:10;;;;;;;;;11.00;10.00;;;;;12.75;76.18;100217.09;5053250;28;45375;-59
2021/10/29 04:40:37;;;;;;;;;13.00;11.00;;;;;12.76;76.46;100215.31;5059734;28;45287;-59
2021/10/29 04:43:07;;;;;;;;;12.50;11.50;;;;;12.77;76.45;100217.84;5061824;28;46997;-59
2021/10/29 04:45:33;;;;;;;;;14.75;11.75;;;;;12.76;76.56;100213.56;5061559;28;45311;-59
2021/10/29 04:47:59;;;;;;;;;11.75;11.00;;;;;12.75;76.09;100213.63;5060618;28;45418;-58
2021/10/29 04:50:26;;;;;;;;;12.75;11.00;;;;;12.77;76.26;100211.78;5061937;28;45484;-59
2021/10/29 04:52:51;;;;;;;;;14.50;11.75;;;;;12.76;76.46;100212.72;5060226;28;47269;-58
2021/10/29 04:55:16;;;;;;;;;12.00;11.00;;;;;12.75;76.65;100217.09;5056635;28;45450;-59
2021/10/29 04:57:42;;;;;;;;;14.25;11.50;;;;;12.76;76.57;100215.31;5060765;28;45315;-57
2021/10/29 05:00:09;;;;;;;;;16.25;11.75;;;;;12.75;76.50;100206.66;5061310;28;45295;-58
2021/10/29 05:02:35;;;;;;;;;10.00;9.50;;;;;12.75;76.63;100197.97;5059947;28;46351;-58
2021/10/29 05:05:03;;;;;;;;;11.00;10.00;;;;;12.74;76.64;100199.75;5060033;28;45519;-58
2021/10/29 05:07:29;;;;;;;;;11.50;8.25;;;;;12.74;76.94;100197.13;5061944;28;45323;-58
2021/10/29 05:09:55;;;;;;;;;12.00;10.25;;;;;12.73;76.90;100198.06;5061012;28;45342;-58
2021/10/29 05:12:21;;;;;;;;;11.00;11.00;;;;;12.73;76.92;100185.03;5059034;28;46287;-58
2021/10/29 05:14:46;;;;;;;;;11.00;11.00;;;;;12.74;76.77;100193.69;5058795;28;45827;-58
2021/10/29 05:17:12;;;;;;;;;13.50;11.50;;;;;12.71;76.96;100183.41;5059561;28;45336;-58
2021/10/29 05:19:37;;;;;;;;;15.00;11.00;;;;;12.73;76.96;100187.63;5059614;28;45660;-59
2021/10/29 05:22:03;;;;;;;;;15.00;11.25;;;;;12.75;77.10;100183.19;5059813;28;45521;-59
2021/10/29 05:24:29;;;;;;;;;12.50;11.75;;;;;12.75;76.93;100185.78;5050841;28;45604;-59
2021/10/29 05:26:55;;;;;;;;;17.75;12.75;;;;;12.77;77.14;100188.31;5061667;28;45559;-58
2021/10/29 05:29:20;;;;;;;;;12.50;11.00;;;;;12.76;77.16;100181.41;5061030;28;45338;-58
2021/10/29 05:31:46;;;;;;;;;18.00;14.50;;;;;12.78;77.19;100187.41;5060791;28;45469;-59
2021/10/29 05:34:11;;;;;;;;;12.25;11.75;;;;;12.79;77.46;100173.47;5061443;28;45390;-59
2021/10/29 05:36:37;;;;;;;;;12.00;11.50;;;;;12.84;77.52;100181.09;5050684;28;45304;-59
2021/10/29 05:39:06;;;;;;;;;13.00;12.25;;;;;12.85;77.57;100175.81;5059459;28;45539;-59
2021/10/29 05:41:31;;;;;;;;;14.25;13.00;;;;;12.92;77.35;100166.78;5060514;28;46573;-59
2021/10/29 05:43:57;;;;;;;;;16.00;14.00;;;;;12.97;77.04;100170.00;5060716;28;45222;-59
2021/10/29 05:46:27;;;;;;;;;13.50;12.25;;;;;13.00;76.95;100171.63;5060734;28;45212;-59
2021/10/29 05:48:53;;;;;;;;;11.25;11.00;;;;;13.01;76.62;100168.09;5056497;28;45329;-59
2021/10/29 05:51:21;;;;;;;;;16.00;12.00;;;;;13.00;76.38;100169.00;5055365;28;45959;-59
2021/10/29 05:56:12;;;;;;;;;13.50;10.75;;;;;12.97;76.72;100170.00;5060155;28;45228;-59
2021/10/29 05:58:37;;;;;;;;;15.00;13.00;;;;;12.95;76.56;100163.16;5051494;28;45433;-60
2021/10/29 06:01:03;;;;;;;;;13.00;12.00;;;;;12.96;76.86;100157.03;5058758;28;47144;-58
2021/10/29 06:03:28;;;;;;;;;16.50;12.00;;;;;12.94;77.26;100154.50;5059448;28;45274;-57
2021/10/29 06:05:55;;;;;;;;;14.50;11.00;;;;;12.94;76.83;100156.25;5061116;28;45364;-58
2021/10/29 06:08:21;;;;;;;;;11.75;11.75;;;;;12.90;76.45;100144.28;5059452;28;45481;-59
2021/10/29 06:10:46;;;;;;;;;14.00;12.75;;;;;12.91;77.25;100151.19;5060092;28;46211;-59
2021/10/29 06:13:12;;;;;;;;;13.25;12.00;;;;;12.90;77.15;100147.75;5060443;28;45324;-59
2021/10/29 06:15:41;;;;;;;;;18.00;14.50;;;;;12.92;77.12;100139.84;5060615;28;45232;-58
2021/10/29 06:18:07;;;;;;;;;16.00;12.00;;;;;12.91;77.28;100143.38;5060576;28;45212;-58
2021/10/29 06:20:32;;;;;;;;;21.50;13.75;;;;;12.94;77.02;100145.84;5059943;28;46046;-58
2021/10/29 06:22:58;;;;;;;;;15.75;12.25;;;;;12.92;77.00;100142.47;5055063;28;45436;-63
2021/10/29 06:25:29;;;;;;;;;14.25;11.00;;;;;12.93;76.86;100139.78;5058759;28;45309;-58
2021/10/29 06:30:42;;;;;;;;;17.00;11.00;;;;;12.94;77.35;100128.44;5060311;28;45299;-60
2021/10/29 06:33:08;;;;;;;;;13.00;11.75;;;;;12.98;76.80;100139.56;5060760;28;45294;-58
2021/10/29 06:35:34;;;;;;;;;18.75;12.50;;;;;12.98;76.99;100145.63;5058848;28;45224;-59
2021/10/29 06:38:00;;;;;;;;;13.25;12.50;;;;;13.01;77.02;100144.63;5051569;28;45495;-58
2021/10/29 06:40:28;;;;;;;;;15.50;11.25;;;;;13.04;76.83;100147.97;5060157;28;46221;-59
2021/10/29 06:42:58;;;;;;;;;13.25;13.25;;;;;13.07;76.79;100139.97;5060866;28;45833;-59
2021/10/29 07:01:47;;;;;;;;;13.75;11.00;;;;;13.32;75.95;100144.06;5045225;28;45349;-63
2021/10/29 07:04:34;;;;;;;;;12.75;10.25;;;;;13.40;75.70;100147.97;5058129;28;45334;-61
2021/10/29 07:40:23;;;;;;;;;14.00;11.00;;;;;14.32;72.62;100133.75;5059347;28;45338;-57
2021/10/29 07:43:03;;;;;;;;;12.75;7.25;;;;;14.32;72.01;100123.28;5046279;28;45286;-56
2021/10/29 07:45:29;;;;;;;;;10.50;7.75;;;;;14.38;72.13;100129.94;5059057;28;47000;-54
2021/10/29 07:47:55;;;;;;;;;17.00;12.75;;;;;14.42;71.73;100138.50;5059217;28;45318;-66
2021/10/29 07:50:21;;;;;;;;;6.75;6.75;;;;;14.46;71.87;100138.28;5059107;28;45392;-56
2021/10/29 07:52:49;;;;;;;;;9.25;7.75;;;;;14.51;71.72;100131.03;5058829;28;45243;-57
2021/10/29 07:55:17;;;;;;;;;13.25;7.50;;;;;14.53;71.42;100134.41;5057974;28;46034;-57
2021/10/29 07:57:45;;;;;;;;;7.00;7.00;;;;;14.58;71.29;100142.00;5059141;28;45305;-57
2021/10/29 08:00:11;;;;;;;;;8.00;8.00;;;;;14.60;71.24;100137.53;5058751;28;45296;-57
2021/10/29 08:02:37;;;;;;;;;14.00;8.00;;;;;14.61;70.95;100140.06;5052755;28;45472;-57
2021/10/29 08:05:03;;;;;;;;;6.00;6.00;;;;;14.61;70.31;100139.22;5059892;28;45328;-57
2021/10/29 08:07:30;;;;;;;;;7.25;7.25;;;;;14.64;70.76;100143.47;5062633;28;45681;-56
2021/10/29 08:09:56;;;;;;;;;9.75;5.75;;;;;14.69;70.92;100147.50;5062520;28;45377;-58
2021/10/29 08:12:21;;;;;;;;;13.50;9.25;;;;;14.75;70.32;100151.56;5062642;28;46192;-57
2021/10/29 08:14:48;;;;;;;;;8.25;8.00;;;;;14.74;70.16;100153.31;5060621;28;45421;-56
2021/10/29 08:17:15;;;;;;;;;16.50;14.75;;;;;14.72;69.98;100157.78;5062587;28;45340;-57
2021/10/29 08:19:41;;;;;;;;;6.25;6.25;;;;;14.74;70.46;100150.72;5062757;28;45225;-57
2021/10/29 08:22:06;;;;;;;;;8.75;7.25;;;;;14.78;69.99;100165.31;5057141;28;45251;-57
2021/10/29 08:24:34;;;;;;;;;8.25;4.50;;;;;14.76;70.00;100158.47;5054877;28;45610;-57
2021/10/29 08:27:00;;;;;;;;;5.50;3.25;;;;;14.79;70.32;100153.06;5058544;28;45687;-57
2021/10/29 08:29:26;;;;;;;;;6.75;4.75;;;;;14.79;70.03;100147.84;5062587;28;45323;-57
2021/10/29 08:31:52;;;;;;;;;10.50;6.00;;;;;14.81;69.86;100146.81;5062358;28;45483;-57
2021/10/29 08:34:20;;;;;;;;;8.75;7.25;;;;;14.82;69.96;100158.16;5062559;28;46345;-57
2021/10/29 08:36:45;;;;;;;;;9.25;8.00;;;;;14.87;69.88;100153.50;5050505;28;45735;-57
2021/10/29 08:39:13;;;;;;;;;10.50;8.25;;;;;14.91;69.59;100152.41;5062585;28;45501;-57
2021/10/29 08:41:40;;;;;;;;;12.00;9.75;;;;;14.93;69.54;100163.63;5061984;28;45362;-57
2021/10/29 08:44:06;;;;;;;;;9.75;8.00;;;;;14.97;69.53;100156.47;5062107;28;46142;-65
2021/10/29 08:46:33;;;;;;;;;10.00;8.00;;;;;15.02;69.72;100172.78;5063957;28;45708;-58
2021/10/29 08:49:00;;;;;;;;;7.75;7.75;;;;;15.00;69.46;100154.50;5062261;28;45434;-57
2021/10/29 08:51:27;;;;;;;;;10.00;9.00;;;;;15.07;69.44;100160.28;5061891;28;45482;-58
2021/10/29 08:53:54;;;;;;;;;13.25;7.00;;;;;15.09;69.52;100161.03;5061961;28;46476;-58
2021/10/29 08:56:20;;;;;;;;;8.75;7.25;;;;;15.13;69.38;100158.16;5061671;28;46221;-58
2021/10/29 08:59:13;;;;;;;;;10.25;9.50;;;;;15.16;69.14;100162.38;5060215;28;45489;-58
2021/10/29 09:34:06;;;;;;;;;7.00;7.00;;;;;15.63;68.08;100172.00;5061210;28;45329;-57
2021/10/29 09:36:34;;;;;;;;;3.50;3.50;;;;;15.68;68.44;100170.78;5051610;28;45289;-57
2021/10/29 09:39:09;;;;;;;;;7.75;7.50;;;;;15.74;67.86;100166.97;5059542;28;45273;-56
2021/10/29 09:41:38;;;;;;;;;8.75;8.75;;;;;15.74;68.17;100169.56;5061383;28;45364;-57
2021/10/29 09:44:11;;;;;;;;;11.50;10.00;;;;;15.84;67.93;100175.16;5057761;28;45317;-58
2021/10/29 09:46:59;;;;;;;;;16.50;13.75;;;;;15.92;68.10;100168.50;5049922;28;46162;-58
2021/10/29 09:52:35;;;;;;;;;11.25;11.25;;;;;16.09;67.47;100170.97;5050896;28;45267;-58
2021/10/29 09:57:28;;;;;;;;;14.75;12.75;;;;;16.22;66.85;100167.59;5052083;28;45617;-58
2021/10/29 09:59:55;;;;;;;;;20.50;16.25;;;;;16.25;67.10;100186.66;5048770;28;45358;-58
2021/10/29 10:02:23;;;;;;;;;17.75;14.00;;;;;16.33;67.14;100188.81;5052555;28;45426;-58
2021/10/29 10:04:50;;;;;;;;;13.25;8.50;;;;;16.38;66.76;100189.38;5052286;28;45352;-58
2021/10/29 10:07:36;;;;;;;;;9.50;9.50;;;;;16.37;67.08;100185.06;5045698;28;46838;-58
2021/10/29 10:10:04;;;;;;;;;16.75;10.25;;;;;16.37;67.33;100195.53;5050107;28;45379;-57
2021/10/29 10:12:41;;;;;;;;;12.50;9.00;;;;;16.28;67.93;100194.34;5060947;28;45379;-58
2021/10/29 10:15:08;;;;;;;;;13.00;9.75;;;;;16.26;68.39;100198.81;5060524;28;45199;-58
2021/10/29 10:17:35;;;;;;;;;10.00;10.00;;;;;16.25;68.79;100197.13;5060682;28;46292;-58
2021/10/29 10:20:03;;;;;;;;;12.00;11.00;;;;;16.26;69.48;100203.22;5059125;28;45311;-58
2021/10/29 10:22:35;;;;;;;;;13.50;12.50;;;;;16.24;69.94;100205.94;5060344;28;45358;-58
2021/10/29 10:25:08;;;;;;;;;8.50;8.50;;;;;16.20;70.86;100199.16;5053079;28;45283;-58
2021/10/29 10:30:47;;;;;;;;;8.00;8.00;;;;;16.13;71.86;100211.81;5060300;28;45565;-58
2021/10/29 10:45:18;;;;;;;;;8.50;6.75;;;;;15.87;74.80;100196.75;5057827;28;45383;-58
2021/10/29 10:47:49;;;;;;;;;8.75;7.75;;;;;15.82;74.89;100202.28;5060350;28;45477;-58
2021/10/29 10:50:27;;;;;;;;;10.00;9.50;;;;;15.82;75.19;100206.69;5060024;28;46104;-58
2021/10/29 10:52:59;;;;;;;;;12.75;9.00;;;;;15.81;75.75;100202.34;5060041;28;45720;-58
2021/10/29 10:55:31;;;;;;;;;10.00;7.00;;;;;15.75;76.25;100216.66;5060284;28;45387;-58
2021/10/29 10:58:18;;;;;;;;;9.75;8.50;;;;;15.69;78.42;100227.47;5060131;28;45225;-58
2021/10/29 11:04:21;;;;;;;;;13.50;11.50;;;;;15.50;79.02;100224.19;5057839;28;45255;-57
2021/10/29 11:09:57;;;;;;;;;11.75;10.00;;;;;15.42;80.02;100208.91;5059632;28;45573;-57
2021/10/29 11:12:45;;;;;;;;;17.00;13.25;;;;;15.43;79.92;100196.66;5053540;28;46322;-57
2021/10/29 11:15:15;;;;;;;;;12.00;11.50;;;;;15.42;80.67;100197.59;5059239;28;45177;-57
2021/10/29 11:17:49;;;;;;;;;9.00;6.75;;;;;15.38;80.76;100198.66;5059571;28;45307;-57
2021/10/29 11:20:51;;;;;;;;;10.75;9.00;;;;;15.36;81.16;100190.91;5059764;28;45481;-57
2021/10/29 11:23:17;;;;;;;;;10.50;9.75;;;;;15.33;81.51;100196.31;5049719;28;46281;-57
2021/10/29 11:26:04;;;;;;;;;11.33;10.67;;;;;15.34;82.31;100197.16;5054254;28;45495;-57
2021/10/29 11:28:34;;;;;;;;;13.00;13.00;;;;;15.31;82.77;100197.31;5059650;28;45285;-57
2021/10/29 11:31:01;;;;;;;;;11.25;8.50;;;;;15.27;82.82;100188.81;5058496;28;45238;-57
2021/10/29 11:33:27;;;;;;;;;16.00;11.00;;;;;15.30;82.84;100188.63;5054635;28;46074;-57
2021/10/29 11:36:05;;;;;;;;;14.75;12.25;;;;;15.33;83.02;100174.53;5054332;28;45506;-57
2021/10/29 11:38:33;;;;;;;;;12.75;12.50;;;;;15.36;83.23;100177.81;5053587;28;45197;-57
2021/10/29 11:41:00;;;;;;;;;11.00;9.25;;;;;15.42;83.14;100177.47;5059523;28;45238;-57
2021/10/29 11:43:29;;;;;;;;;11.25;10.00;;;;;15.48;82.83;100176.28;5059436;28;46135;-57
2021/10/29 11:45:56;;;;;;;;;11.50;10.50;;;;;15.52;82.64;100176.00;5059595;28;45995;-57
2021/10/29 11:48:22;;;;;;;;;11.25;10.00;;;;;15.58;82.37;100156.47;5059373;28;45238;-57
2021/10/29 11:51:02;;;;;;;;;10.00;10.00;;;;;15.58;82.17;100164.34;5059222;28;45297;-56
2021/10/29 11:53:27;;;;;;;;;13.75;11.50;;;;;15.60;82.32;100156.41;5058871;28;45288;-57
2021/10/29 11:56:00;;;;;;;;;9.50;8.00;;;;;15.60;82.05;100157.25;5059247;28;45260;-56
2021/10/29 12:09:21;;;;;;;;;12.00;11.25;;;;;15.68;81.96;100164.69;5058699;28;45299;-56
2021/10/29 12:11:46;;;;;;;;;16.75;12.00;;;;;15.73;82.29;100171.34;5059219;28;45450;-57
2021/10/29 12:14:13;;;;;;;;;9.75;9.75;;;;;15.80;81.83;100154.34;5045206;28;46267;-57
2021/10/29 12:16:39;;;;;;;;;12.50;10.75;;;;;15.88;81.78;100159.16;5058852;28;45397;-56
2021/10/29 12:19:08;;;;;;;;;12.25;11.00;;;;;15.95;81.50;100152.59;5059174;28;45240;-56
2021/10/29 12:21:40;;;;;;;;;12.25;9.00;;;;;16.05;81.21;100159.00;5058831;28;45351;-57
2021/10/29 12:24:11;;;;;;;;;13.75;9.75;;;;;16.19;80.87;100154.69;5050259;28;46298;-56
2021/10/29 12:26:40;;;;;;;;;12.00;9.00;;;;;16.30;80.42;100140.00;5059009;28;45596;-56
2021/10/29 12:29:14;;;;;;;;;10.25;9.25;;;;;16.46;80.42;100150.41;5058563;28;45284;-57
2021/10/29 12:32:44;;;;;;;;;8.50;8.50;;;;;16.55;79.81;100144.59;5059252;28;45295;-58
2021/10/29 13:02:22;;;;;;;;;10.75;10.25;;;;;16.85;77.11;100113.03;5060724;28;45319;-56
2021/10/29 13:04:53;;;;;;;;;12.25;12.25;;;;;16.87;76.72;100094.56;5060662;28;45268;-56
2021/10/29 13:07:24;;;;;;;;;15.75;10.75;;;;;16.93;76.75;100110.75;5061995;28;46386;-56
2021/10/29 13:09:50;;;;;;;;;10.00;9.25;;;;;16.95;76.66;100110.63;5061557;28;45599;-56
2021/10/29 13:12:29;;;;;;;;;10.00;8.75;;;;;16.92;76.28;100113.47;5063085;28;45340;-56
2021/10/29 13:14:59;;;;;;;;;11.50;10.00;;;;;16.87;76.21;100126.88;5048379;28;45293;-56
2021/10/29 13:17:36;;;;;;;;;8.50;8.00;;;;;16.86;75.96;100127.81;5044080;28;46155;-56
2021/10/29 13:54:51;;;;;;;;;9.00;8.50;;;;;16.70;76.18;100140.22;5063254;28;45240;-57
2021/10/29 14:30:20;;;;;;;;;11.25;10.00;;;;;16.19;79.52;100170.41;5059765;28;45358;-56
2021/10/29 14:35:00;;;;;;;;;10.00;8.50;;;;;16.03;80.64;100160.88;5060252;28;45223;-56
2021/10/29 14:40:17;;;;;;;;;11.75;9.75;;;;;16.02;81.38;100176.69;5060080;28;45480;-58
2021/10/29 14:43:04;;;;;;;;;11.00;9.25;;;;;15.97;81.68;100169.06;5060214;28;46852;-58
2021/10/29 14:45:30;;;;;;;;;9.00;8.75;;;;;15.97;82.10;100169.06;5046466;28;45637;-57
2021/10/29 15:04:15;;;;;;;;;12.25;10.25;;;;;15.64;87.41;100189.38;5058827;28;45453;-60
2021/10/29 15:07:09;;;;;;;;;11.00;9.75;;;;;15.57;85.88;100175.75;5060207;28;45518;-59
2021/10/29 15:31:01;;;;;;;;;10.75;10.00;;;;;16.00;86.38;100176.75;5053321;28;45263;-59
2021/10/29 15:46:54;;;;;;;;;13.75;10.25;;;;;22.66;72.65;100171.34;5059066;28;45307;-47
2021/10/29 15:49:33;;;;;;;;;14.50;11.25;;;;;22.21;67.51;100170.81;5054379;28;45234;-55
2021/10/29 15:52:03;;;;;;;;;12.25;11.50;;;;;20.96;67.28;100174.88;5057526;28;45400;-66
2021/10/29 15:54:31;;;;;;;;;10.75;10.00;;;;;20.69;67.48;100181.50;5058158;28;45259;-56
2021/10/29 15:57:01;;;;;;;;;14.00;10.75;;;;;19.99;69.37;100185.06;5059516;28;46113;-54
2021/10/29 15:59:57;;;;;;;;;10.00;9.00;;;;;19.28;70.39;100178.03;5058811;28;45292;-54